sensor_id;sensor_type;location;lat;lon;timestamp;pressure;altitude;pressure_sealevel;temperature;humidity
64354;BME280;50681;53.334;-6.536;2023-06-22T00:00:27;101220.41;;;18.17;100.00
64354;BME280;50681;53.334;-6.536;2023-06-22T00:02:52;101233.09;;;18.13;100.00
64354;BME280;50681;53.334;-6.536;2023-06-22T00:05:17;101225.25;;;18.02;100.00
64354;BME280;50681;53.334;-6.536;2023-06-22T00:07:42;101227.97;;;18.02;100.00
64354;BME280;50681;53.334;-6.536;2023-06-22T00:10:08;101225.59;;;18.01;100.00
64354;BME280;50681;53.334;-6.536;2023-06-22T00:12:33;101230.84;;;17.97;100.00
64354;BME280;50681;53.334;-6.536;2023-06-22T00:14:58;101234.88;;;17.91;100.00
64354;BME280;50681;53.334;-6.536;2023-06-22T00:17:24;101237.13;;;17.71;100.00
64354;BME280;50681;53.334;-6.536;2023-06-22T00:19:49;101237.13;;;17.71;100.00
64354;BME280;50681;53.334;-6.536;2023-06-22T00:22:18;101245.16;;;17.59;100.00
64354;BME280;50681;53.334;-6.536;2023-06-22T00:24:46;101233.44;;;17.58;100.00
64354;BME280;50681;53.334;-6.536;2023-06-22T00:27:11;101239.19;;;17.57;100.00
64354;BME280;50681;53.334;-6.536;2023-06-22T00:29:44;101242.25;;;17.46;100.00
64354;BME280;50681;53.334;-6.536;2023-06-22T00:32:09;101243.06;;;17.47;100.00
64354;BME280;50681;53.334;-6.536;2023-06-22T00:34:34;101240.94;;;17.35;100.00
64354;BME280;50681;53.334;-6.536;2023-06-22T00:37:00;101242.53;;;17.36;100.00
64354;BME280;50681;53.334;-6.536;2023-06-22T00:39:25;101244.81;;;16.94;100.00
64354;BME280;50681;53.334;-6.536;2023-06-22T00:41:50;101243.13;;;17.15;100.00
64354;BME280;50681;53.334;-6.536;2023-06-22T00:44:15;101247.63;;;17.11;100.00
64354;BME280;50681;53.334;-6.536;2023-06-22T00:46:41;101247.00;;;17.14;100.00
64354;BME280;50681;53.334;-6.536;2023-06-22T00:49:06;101247.75;;;16.97;100.00
64354;BME280;50681;53.334;-6.536;2023-06-22T00:51:32;101254.78;;;16.58;100.00
64354;BME280;50681;53.334;-6.536;2023-06-22T00:53:57;101252.84;;;16.90;100.00
64354;BME280;50681;53.334;-6.536;2023-06-22T00:56:23;101257.47;;;16.89;100.00
64354;BME280;50681;53.334;-6.536;2023-06-22T00:58:49;101259.53;;;16.84;100.00
64354;BME280;50681;53.334;-6.536;2023-06-22T01:03:47;101263.38;;;16.83;100.00
64354;BME280;50681;53.334;-6.536;2023-06-22T01:06:21;101261.81;;;16.90;100.00
64354;BME280;50681;53.334;-6.536;2023-06-22T01:08:53;101267.59;;;16.89;100.00
64354;BME280;50681;53.334;-6.536;2023-06-22T01:13:56;101266.59;;;16.85;100.00
64354;BME280;50681;53.334;-6.536;2023-06-22T01:16:23;101268.84;;;16.83;100.00
64354;BME280;50681;53.334;-6.536;2023-06-22T01:18:50;101269.78;;;16.78;100.00
64354;BME280;50681;53.334;-6.536;2023-06-22T01:21:17;101282.75;;;16.72;100.00
64354;BME280;50681;53.334;-6.536;2023-06-22T01:28:56;101285.75;;;16.62;100.00
64354;BME280;50681;53.334;-6.536;2023-06-22T01:31:26;101282.81;;;16.58;100.00
64354;BME280;50681;53.334;-6.536;2023-06-22T01:33:56;101280.97;;;16.45;100.00
64354;BME280;50681;53.334;-6.536;2023-06-22T01:36:22;101283.69;;;16.45;100.00
64354;BME280;50681;53.334;-6.536;2023-06-22T01:38:48;101289.47;;;16.43;100.00
64354;BME280;50681;53.334;-6.536;2023-06-22T01:41:15;101285.94;;;16.20;100.00
64354;BME280;50681;53.334;-6.536;2023-06-22T01:43:41;101287.91;;;16.28;100.00
64354;BME280;50681;53.334;-6.536;2023-06-22T01:46:06;101283.59;;;16.27;100.00
64354;BME280;50681;53.334;-6.536;2023-06-22T01:48:32;101293.00;;;16.21;100.00
64354;BME280;50681;53.334;-6.536;2023-06-22T01:50:58;101286.38;;;16.13;100.00
64354;BME280;50681;53.334;-6.536;2023-06-22T01:53:24;101287.13;;;16.05;100.00
64354;BME280;50681;53.334;-6.536;2023-06-22T01:55:49;101289.03;;;16.05;100.00
64354;BME280;50681;53.334;-6.536;2023-06-22T01:58:14;101294.59;;;15.99;100.00
64354;BME280;50681;53.334;-6.536;2023-06-22T02:00:58;101299.53;;;15.97;100.00
64354;BME280;50681;53.334;-6.536;2023-06-22T02:03:33;101300.75;;;15.91;100.00
64354;BME280;50681;53.334;-6.536;2023-06-22T02:06:04;101300.28;;;15.89;100.00
64354;BME280;50681;53.334;-6.536;2023-06-22T02:08:32;101301.91;;;15.90;100.00
64354;BME280;50681;53.334;-6.536;2023-06-22T02:10:59;101298.69;;;15.88;100.00
64354;BME280;50681;53.334;-6.536;2023-06-22T02:13:25;101303.59;;;15.86;100.00
64354;BME280;50681;53.334;-6.536;2023-06-22T02:15:51;101300.88;;;15.86;100.00
64354;BME280;50681;53.334;-6.536;2023-06-22T02:18:17;101311.06;;;15.80;100.00
64354;BME280;50681;53.334;-6.536;2023-06-22T02:20:42;101302.09;;;15.80;100.00
64354;BME280;50681;53.334;-6.536;2023-06-22T02:23:08;101307.66;;;15.75;100.00
64354;BME280;50681;53.334;-6.536;2023-06-22T02:25:33;101306.84;;;15.74;100.00
64354;BME280;50681;53.334;-6.536;2023-06-22T02:27:59;101307.56;;;15.80;100.00
64354;BME280;50681;53.334;-6.536;2023-06-22T02:30:24;101319.22;;;15.80;100.00
64354;BME280;50681;53.334;-6.536;2023-06-22T02:32:49;101322.56;;;15.77;100.00
64354;BME280;50681;53.334;-6.536;2023-06-22T02:35:24;101319.97;;;15.72;100.00
64354;BME280;50681;53.334;-6.536;2023-06-22T02:37:50;101317.56;;;15.70;100.00
64354;BME280;50681;53.334;-6.536;2023-06-22T02:40:16;101322.00;;;15.66;100.00
64354;BME280;50681;53.334;-6.536;2023-06-22T02:42:42;101322.09;;;15.61;100.00
64354;BME280;50681;53.334;-6.536;2023-06-22T02:45:07;101321.69;;;15.54;100.00
64354;BME280;50681;53.334;-6.536;2023-06-22T02:47:32;101321.19;;;15.52;100.00
64354;BME280;50681;53.334;-6.536;2023-06-22T02:49:58;101321.81;;;15.49;100.00
64354;BME280;50681;53.334;-6.536;2023-06-22T02:52:23;101319.19;;;15.43;100.00
64354;BME280;50681;53.334;-6.536;2023-06-22T02:54:48;101329.88;;;15.40;100.00
64354;BME280;50681;53.334;-6.536;2023-06-22T02:57:14;101323.13;;;15.37;100.00
64354;BME280;50681;53.334;-6.536;2023-06-22T02:59:40;101327.25;;;15.35;100.00
64354;BME280;50681;53.334;-6.536;2023-06-22T03:02:06;101329.56;;;15.27;100.00
64354;BME280;50681;53.334;-6.536;2023-06-22T03:04:32;101325.31;;;15.21;100.00
64354;BME280;50681;53.334;-6.536;2023-06-22T03:06:57;101322.41;;;15.18;100.00
64354;BME280;50681;53.334;-6.536;2023-06-22T03:09:26;101324.88;;;14.72;100.00
64354;BME280;50681;53.334;-6.536;2023-06-22T03:11:52;101333.59;;;15.02;100.00
64354;BME280;50681;53.334;-6.536;2023-06-22T03:14:18;101332.88;;;15.10;100.00
64354;BME280;50681;53.334;-6.536;2023-06-22T03:16:43;101335.09;;;15.08;100.00
64354;BME280;50681;53.334;-6.536;2023-06-22T03:19:08;101334.25;;;14.61;100.00
64354;BME280;50681;53.334;-6.536;2023-06-22T03:21:33;101329.94;;;14.93;100.00
64354;BME280;50681;53.334;-6.536;2023-06-22T03:23:59;101333.34;;;14.84;100.00
64354;BME280;50681;53.334;-6.536;2023-06-22T03:26:24;101336.56;;;14.87;100.00
64354;BME280;50681;53.334;-6.536;2023-06-22T03:28:51;101330.28;;;14.72;100.00
64354;BME280;50681;53.334;-6.536;2023-06-22T03:31:17;101336.66;;;14.62;100.00
64354;BME280;50681;53.334;-6.536;2023-06-22T03:33:46;101331.22;;;14.62;100.00
64354;BME280;50681;53.334;-6.536;2023-06-22T03:36:11;101332.75;;;14.16;100.00
64354;BME280;50681;53.334;-6.536;2023-06-22T03:38:37;101324.25;;;14.56;100.00
64354;BME280;50681;53.334;-6.536;2023-06-22T03:41:02;101325.84;;;14.24;100.00
64354;BME280;50681;53.334;-6.536;2023-06-22T03:43:27;101329.16;;;14.21;100.00
64354;BME280;50681;53.334;-6.536;2023-06-22T03:45:53;101330.06;;;14.16;100.00
64354;BME280;50681;53.334;-6.536;2023-06-22T03:48:18;101333.34;;;14.13;100.00
64354;BME280;50681;53.334;-6.536;2023-06-22T03:50:43;101330.72;;;14.08;100.00
64354;BME280;50681;53.334;-6.536;2023-06-22T03:53:09;101334.88;;;14.00;100.00
64354;BME280;50681;53.334;-6.536;2023-06-22T03:55:35;101329.25;;;13.96;100.00
64354;BME280;50681;53.334;-6.536;2023-06-22T03:58:00;101337.47;;;13.91;100.00
64354;BME280;50681;53.334;-6.536;2023-06-22T04:00:30;101339.66;;;13.89;100.00
64354;BME280;50681;53.334;-6.536;2023-06-22T04:02:56;101331.72;;;13.93;100.00
64354;BME280;50681;53.334;-6.536;2023-06-22T04:05:21;101336.34;;;13.92;100.00
64354;BME280;50681;53.334;-6.536;2023-06-22T04:07:46;101335.91;;;13.85;100.00
64354;BME280;50681;53.334;-6.536;2023-06-22T04:10:11;101345.09;;;13.89;100.00
64354;BME280;50681;53.334;-6.536;2023-06-22T04:12:37;101345.66;;;13.86;100.00
64354;BME280;50681;53.334;-6.536;2023-06-22T04:15:02;101347.28;;;13.87;100.00
64354;BME280;50681;53.334;-6.536;2023-06-22T04:17:27;101348.03;;;14.12;100.00
64354;BME280;50681;53.334;-6.536;2023-06-22T04:19:53;101347.03;;;13.84;100.00
64354;BME280;50681;53.334;-6.536;2023-06-22T04:22:18;101354.66;;;13.81;100.00
64354;BME280;50681;53.334;-6.536;2023-06-22T04:24:43;101359.88;;;13.78;100.00
64354;BME280;50681;53.334;-6.536;2023-06-22T04:27:09;101351.75;;;13.78;100.00
64354;BME280;50681;53.334;-6.536;2023-06-22T04:29:34;101352.06;;;13.95;100.00
64354;BME280;50681;53.334;-6.536;2023-06-22T04:31:59;101353.88;;;13.81;100.00
64354;BME280;50681;53.334;-6.536;2023-06-22T04:34:30;101360.09;;;13.81;100.00
64354;BME280;50681;53.334;-6.536;2023-06-22T04:36:55;101356.06;;;13.79;100.00
64354;BME280;50681;53.334;-6.536;2023-06-22T04:39:21;101354.59;;;13.87;100.00
64354;BME280;50681;53.334;-6.536;2023-06-22T04:41:46;101353.88;;;13.81;100.00
64354;BME280;50681;53.334;-6.536;2023-06-22T04:44:15;101355.50;;;13.82;100.00
64354;BME280;50681;53.334;-6.536;2023-06-22T04:46:59;101361.97;;;13.86;100.00
64354;BME280;50681;53.334;-6.536;2023-06-22T04:49:33;101357.91;;;13.84;100.00
64354;BME280;50681;53.334;-6.536;2023-06-22T04:52:00;101360.91;;;13.82;100.00
64354;BME280;50681;53.334;-6.536;2023-06-22T04:54:25;101358.66;;;14.08;100.00
64354;BME280;50681;53.334;-6.536;2023-06-22T04:56:51;101363.00;;;14.29;100.00
64354;BME280;50681;53.334;-6.536;2023-06-22T04:59:26;101368.50;;;14.43;100.00
64354;BME280;50681;53.334;-6.536;2023-06-22T05:01:56;101377.38;;;14.48;100.00
64354;BME280;50681;53.334;-6.536;2023-06-22T05:04:22;101369.88;;;14.59;100.00
64354;BME280;50681;53.334;-6.536;2023-06-22T05:06:52;101374.38;;;15.16;100.00
64354;BME280;50681;53.334;-6.536;2023-06-22T05:09:17;101375.63;;;15.52;100.00
64354;BME280;50681;53.334;-6.536;2023-06-22T05:11:43;101375.91;;;15.22;100.00
64354;BME280;50681;53.334;-6.536;2023-06-22T05:14:09;101381.34;;;15.08;100.00
64354;BME280;50681;53.334;-6.536;2023-06-22T05:16:34;101379.38;;;14.95;100.00
64354;BME280;50681;53.334;-6.536;2023-06-22T05:19:00;101377.28;;;14.92;100.00
64354;BME280;50681;53.334;-6.536;2023-06-22T05:21:28;101375.75;;;14.86;100.00
64354;BME280;50681;53.334;-6.536;2023-06-22T05:23:54;101387.56;;;15.09;100.00
64354;BME280;50681;53.334;-6.536;2023-06-22T05:26:20;101387.41;;;15.33;100.00
64354;BME280;50681;53.334;-6.536;2023-06-22T05:28:45;101384.22;;;15.59;100.00
64354;BME280;50681;53.334;-6.536;2023-06-22T05:31:12;101386.72;;;15.69;100.00
64354;BME280;50681;53.334;-6.536;2023-06-22T05:33:37;101385.09;;;15.82;100.00
64354;BME280;50681;53.334;-6.536;2023-06-22T05:36:03;101387.13;;;15.91;100.00
64354;BME280;50681;53.334;-6.536;2023-06-22T05:38:28;101382.75;;;16.04;100.00
64354;BME280;50681;53.334;-6.536;2023-06-22T05:40:53;101382.28;;;16.24;100.00
64354;BME280;50681;53.334;-6.536;2023-06-22T05:43:18;101376.88;;;16.47;100.00
64354;BME280;50681;53.334;-6.536;2023-06-22T05:45:44;101378.06;;;16.55;100.00
64354;BME280;50681;53.334;-6.536;2023-06-22T05:48:09;101379.59;;;16.70;100.00
64354;BME280;50681;53.334;-6.536;2023-06-22T05:50:34;101386.66;;;16.71;100.00
64354;BME280;50681;53.334;-6.536;2023-06-22T05:53:00;101387.66;;;16.75;100.00
64354;BME280;50681;53.334;-6.536;2023-06-22T05:55:25;101381.72;;;16.73;100.00
64354;BME280;50681;53.334;-6.536;2023-06-22T05:57:50;101384.44;;;16.73;100.00
64354;BME280;50681;53.334;-6.536;2023-06-22T06:00:15;101380.09;;;16.72;100.00
64354;BME280;50681;53.334;-6.536;2023-06-22T06:02:41;101373.22;;;16.74;100.00
64354;BME280;50681;53.334;-6.536;2023-06-22T06:05:10;101372.91;;;16.76;100.00
64354;BME280;50681;53.334;-6.536;2023-06-22T06:07:35;101381.16;;;16.85;100.00
64354;BME280;50681;53.334;-6.536;2023-06-22T06:10:00;101385.91;;;16.79;100.00
64354;BME280;50681;53.334;-6.536;2023-06-22T06:12:26;101389.88;;;16.73;100.00
64354;BME280;50681;53.334;-6.536;2023-06-22T06:14:51;101391.75;;;16.86;100.00
64354;BME280;50681;53.334;-6.536;2023-06-22T06:17:18;101388.47;;;16.75;100.00
64354;BME280;50681;53.334;-6.536;2023-06-22T06:19:43;101392.00;;;16.76;100.00
64354;BME280;50681;53.334;-6.536;2023-06-22T06:22:09;101395.59;;;16.85;100.00
64354;BME280;50681;53.334;-6.536;2023-06-22T06:24:34;101393.00;;;17.03;100.00
64354;BME280;50681;53.334;-6.536;2023-06-22T06:26:59;101390.63;;;17.10;100.00
64354;BME280;50681;53.334;-6.536;2023-06-22T06:29:24;101390.69;;;17.19;100.00
64354;BME280;50681;53.334;-6.536;2023-06-22T06:31:50;101392.03;;;17.30;100.00
64354;BME280;50681;53.334;-6.536;2023-06-22T06:34:15;101397.38;;;17.44;100.00
64354;BME280;50681;53.334;-6.536;2023-06-22T06:36:40;101395.59;;;17.48;100.00
64354;BME280;50681;53.334;-6.536;2023-06-22T06:39:05;101402.66;;;17.41;100.00
64354;BME280;50681;53.334;-6.536;2023-06-22T06:41:31;101404.63;;;17.49;100.00
64354;BME280;50681;53.334;-6.536;2023-06-22T06:43:56;101395.19;;;17.64;100.00
64354;BME280;50681;53.334;-6.536;2023-06-22T06:46:21;101396.00;;;17.73;100.00
64354;BME280;50681;53.334;-6.536;2023-06-22T06:48:47;101399.31;;;17.53;100.00
64354;BME280;50681;53.334;-6.536;2023-06-22T06:51:12;101398.06;;;17.59;100.00
64354;BME280;50681;53.334;-6.536;2023-06-22T06:53:37;101394.56;;;17.67;100.00
64354;BME280;50681;53.334;-6.536;2023-06-22T06:56:03;101403.41;;;17.73;100.00
64354;BME280;50681;53.334;-6.536;2023-06-22T06:58:30;101401.66;;;17.86;100.00
64354;BME280;50681;53.334;-6.536;2023-06-22T07:01:04;101403.75;;;17.89;100.00
64354;BME280;50681;53.334;-6.536;2023-06-22T07:03:30;101402.31;;;17.83;100.00
64354;BME280;50681;53.334;-6.536;2023-06-22T07:05:57;101399.47;;;17.97;100.00
64354;BME280;50681;53.334;-6.536;2023-06-22T07:08:22;101404.47;;;18.03;100.00
64354;BME280;50681;53.334;-6.536;2023-06-22T07:10:48;101404.16;;;18.14;100.00
64354;BME280;50681;53.334;-6.536;2023-06-22T07:13:14;101411.38;;;18.10;100.00
64354;BME280;50681;53.334;-6.536;2023-06-22T07:15:39;101409.78;;;18.61;100.00
64354;BME280;50681;53.334;-6.536;2023-06-22T07:18:04;101403.03;;;18.68;100.00
64354;BME280;50681;53.334;-6.536;2023-06-22T07:20:30;101410.56;;;18.79;100.00
64354;BME280;50681;53.334;-6.536;2023-06-22T07:22:55;101405.56;;;18.81;100.00
64354;BME280;50681;53.334;-6.536;2023-06-22T07:25:20;101398.50;;;18.89;100.00
64354;BME280;50681;53.334;-6.536;2023-06-22T07:27:46;101402.66;;;18.95;100.00
64354;BME280;50681;53.334;-6.536;2023-06-22T07:30:12;101410.41;;;18.93;100.00
64354;BME280;50681;53.334;-6.536;2023-06-22T07:32:38;101404.44;;;19.09;100.00
64354;BME280;50681;53.334;-6.536;2023-06-22T07:35:03;101405.88;;;19.06;100.00
64354;BME280;50681;53.334;-6.536;2023-06-22T07:37:29;101408.25;;;19.17;100.00
64354;BME280;50681;53.334;-6.536;2023-06-22T07:39:55;101406.47;;;19.30;100.00
64354;BME280;50681;53.334;-6.536;2023-06-22T07:42:24;101411.88;;;19.38;100.00
64354;BME280;50681;53.334;-6.536;2023-06-22T07:44:49;101424.03;;;19.29;100.00
64354;BME280;50681;53.334;-6.536;2023-06-22T07:47:16;101415.75;;;19.46;100.00
64354;BME280;50681;53.334;-6.536;2023-06-22T07:49:43;101408.56;;;19.63;100.00
64354;BME280;50681;53.334;-6.536;2023-06-22T07:52:08;101410.66;;;19.66;100.00
64354;BME280;50681;53.334;-6.536;2023-06-22T07:54:33;101411.22;;;19.80;100.00
64354;BME280;50681;53.334;-6.536;2023-06-22T07:56:58;101418.44;;;19.85;100.00
64354;BME280;50681;53.334;-6.536;2023-06-22T07:59:24;101414.56;;;19.95;100.00
64354;BME280;50681;53.334;-6.536;2023-06-22T08:01:49;101416.44;;;20.03;100.00
64354;BME280;50681;53.334;-6.536;2023-06-22T08:04:14;101412.19;;;19.76;100.00
64354;BME280;50681;53.334;-6.536;2023-06-22T08:06:41;101408.47;;;20.10;100.00
64354;BME280;50681;53.334;-6.536;2023-06-22T08:09:06;101418.59;;;20.19;100.00
64354;BME280;50681;53.334;-6.536;2023-06-22T08:11:31;101420.78;;;20.25;100.00
64354;BME280;50681;53.334;-6.536;2023-06-22T08:13:57;101416.69;;;20.32;100.00
64354;BME280;50681;53.334;-6.536;2023-06-22T08:16:23;101418.44;;;20.36;100.00
64354;BME280;50681;53.334;-6.536;2023-06-22T08:21:37;101421.25;;;20.49;100.00
64354;BME280;50681;53.334;-6.536;2023-06-22T08:24:02;101421.63;;;20.60;100.00
64354;BME280;50681;53.334;-6.536;2023-06-22T08:26:28;101425.56;;;20.71;100.00
64354;BME280;50681;53.334;-6.536;2023-06-22T08:28:53;101429.41;;;20.79;100.00
64354;BME280;50681;53.334;-6.536;2023-06-22T08:31:19;101425.22;;;20.94;100.00
64354;BME280;50681;53.334;-6.536;2023-06-22T08:33:44;101431.53;;;20.94;100.00
64354;BME280;50681;53.334;-6.536;2023-06-22T08:36:11;101419.41;;;20.95;100.00
64354;BME280;50681;53.334;-6.536;2023-06-22T08:38:38;101419.28;;;21.04;100.00
64354;BME280;50681;53.334;-6.536;2023-06-22T08:41:03;101412.19;;;21.03;100.00
64354;BME280;50681;53.334;-6.536;2023-06-22T08:43:28;101417.13;;;20.76;100.00
64354;BME280;50681;53.334;-6.536;2023-06-22T08:45:53;101421.63;;;20.81;100.00
64354;BME280;50681;53.334;-6.536;2023-06-22T08:48:19;101417.53;;;20.87;100.00
64354;BME280;50681;53.334;-6.536;2023-06-22T08:50:46;101422.97;;;20.75;100.00
64354;BME280;50681;53.334;-6.536;2023-06-22T08:53:14;101422.81;;;20.92;100.00
64354;BME280;50681;53.334;-6.536;2023-06-22T08:55:39;101417.91;;;20.98;100.00
64354;BME280;50681;53.334;-6.536;2023-06-22T08:58:04;101420.41;;;20.91;100.00
64354;BME280;50681;53.334;-6.536;2023-06-22T09:00:30;101421.47;;;20.98;100.00
64354;BME280;50681;53.334;-6.536;2023-06-22T09:02:57;101418.25;;;20.96;100.00
64354;BME280;50681;53.334;-6.536;2023-06-22T09:05:23;101411.41;;;21.03;100.00
64354;BME280;50681;53.334;-6.536;2023-06-22T09:07:50;101417.38;;;21.17;100.00
64354;BME280;50681;53.334;-6.536;2023-06-22T09:10:15;101414.53;;;21.26;100.00
64354;BME280;50681;53.334;-6.536;2023-06-22T09:12:41;101416.47;;;21.38;100.00
64354;BME280;50681;53.334;-6.536;2023-06-22T09:15:07;101418.28;;;21.34;100.00
64354;BME280;50681;53.334;-6.536;2023-06-22T09:17:33;101417.84;;;21.44;100.00
64354;BME280;50681;53.334;-6.536;2023-06-22T09:19:58;101419.91;;;21.35;100.00
64354;BME280;50681;53.334;-6.536;2023-06-22T09:22:31;101419.34;;;21.41;100.00
64354;BME280;50681;53.334;-6.536;2023-06-22T09:24:57;101420.50;;;21.53;100.00
64354;BME280;50681;53.334;-6.536;2023-06-22T09:27:22;101421.06;;;21.58;100.00
64354;BME280;50681;53.334;-6.536;2023-06-22T09:29:48;101418.56;;;21.66;100.00
64354;BME280;50681;53.334;-6.536;2023-06-22T09:32:13;101416.03;;;21.85;100.00
64354;BME280;50681;53.334;-6.536;2023-06-22T09:34:39;101404.13;;;21.81;100.00
64354;BME280;50681;53.334;-6.536;2023-06-22T09:37:04;101408.13;;;21.96;100.00
64354;BME280;50681;53.334;-6.536;2023-06-22T09:39:32;101410.03;;;22.08;100.00
64354;BME280;50681;53.334;-6.536;2023-06-22T09:42:00;101406.28;;;22.00;100.00
64354;BME280;50681;53.334;-6.536;2023-06-22T09:44:25;101403.63;;;22.04;100.00
64354;BME280;50681;53.334;-6.536;2023-06-22T09:46:51;101397.75;;;22.18;100.00
64354;BME280;50681;53.334;-6.536;2023-06-22T09:49:16;101396.03;;;22.13;100.00
64354;BME280;50681;53.334;-6.536;2023-06-22T09:51:41;101396.94;;;22.17;100.00
64354;BME280;50681;53.334;-6.536;2023-06-22T09:54:07;101392.94;;;22.27;100.00
64354;BME280;50681;53.334;-6.536;2023-06-22T09:56:32;101403.88;;;22.40;100.00
64354;BME280;50681;53.334;-6.536;2023-06-22T09:58:57;101405.47;;;22.53;100.00
64354;BME280;50681;53.334;-6.536;2023-06-22T10:01:23;101404.41;;;22.58;100.00
64354;BME280;50681;53.334;-6.536;2023-06-22T10:03:48;101400.00;;;22.69;100.00
64354;BME280;50681;53.334;-6.536;2023-06-22T10:06:13;101405.50;;;22.69;100.00
64354;BME280;50681;53.334;-6.536;2023-06-22T10:08:39;101407.41;;;22.81;100.00
64354;BME280;50681;53.334;-6.536;2023-06-22T10:11:06;101403.84;;;22.81;100.00
64354;BME280;50681;53.334;-6.536;2023-06-22T10:16:01;101410.97;;;22.98;100.00
64354;BME280;50681;53.334;-6.536;2023-06-22T10:18:26;101408.50;;;23.09;100.00
64354;BME280;50681;53.334;-6.536;2023-06-22T10:20:53;101412.31;;;23.04;100.00
64354;BME280;50681;53.334;-6.536;2023-06-22T10:23:21;101405.72;;;23.09;100.00
64354;BME280;50681;53.334;-6.536;2023-06-22T10:25:47;101417.19;;;22.95;100.00
64354;BME280;50681;53.334;-6.536;2023-06-22T10:28:12;101414.06;;;22.96;100.00
64354;BME280;50681;53.334;-6.536;2023-06-22T10:30:40;101410.41;;;22.92;100.00
64354;BME280;50681;53.334;-6.536;2023-06-22T10:33:08;101411.88;;;23.02;100.00
64354;BME280;50681;53.334;-6.536;2023-06-22T10:35:34;101405.28;;;22.90;100.00
64354;BME280;50681;53.334;-6.536;2023-06-22T10:37:59;101403.41;;;22.95;100.00
64354;BME280;50681;53.334;-6.536;2023-06-22T10:40:25;101405.91;;;23.16;100.00
64354;BME280;50681;53.334;-6.536;2023-06-22T10:42:50;101408.16;;;23.10;100.00
64354;BME280;50681;53.334;-6.536;2023-06-22T10:45:16;101405.03;;;23.12;100.00
64354;BME280;50681;53.334;-6.536;2023-06-22T10:47:41;101401.06;;;23.25;100.00
64354;BME280;50681;53.334;-6.536;2023-06-22T10:50:10;101405.59;;;23.33;100.00
64354;BME280;50681;53.334;-6.536;2023-06-22T10:52:36;101408.69;;;23.48;100.00
64354;BME280;50681;53.334;-6.536;2023-06-22T10:55:02;101406.53;;;23.09;100.00
64354;BME280;50681;53.334;-6.536;2023-06-22T10:57:28;101414.88;;;23.13;100.00
64354;BME280;50681;53.334;-6.536;2023-06-22T10:59:53;101401.13;;;23.13;100.00
64354;BME280;50681;53.334;-6.536;2023-06-22T11:02:19;101401.75;;;23.06;100.00
64354;BME280;50681;53.334;-6.536;2023-06-22T11:04:45;101403.22;;;23.32;100.00
64354;BME280;50681;53.334;-6.536;2023-06-22T11:07:11;101402.56;;;23.39;100.00
64354;BME280;50681;53.334;-6.536;2023-06-22T11:09:37;101402.75;;;23.46;100.00
64354;BME280;50681;53.334;-6.536;2023-06-22T11:12:03;101404.63;;;23.26;100.00
64354;BME280;50681;53.334;-6.536;2023-06-22T11:14:29;101407.72;;;23.40;100.00
64354;BME280;50681;53.334;-6.536;2023-06-22T11:16:55;101405.38;;;23.58;100.00
64354;BME280;50681;53.334;-6.536;2023-06-22T11:19:21;101407.91;;;23.47;100.00
64354;BME280;50681;53.334;-6.536;2023-06-22T11:21:48;101415.25;;;23.59;100.00
64354;BME280;50681;53.334;-6.536;2023-06-22T11:24:14;101413.13;;;23.69;100.00
64354;BME280;50681;53.334;-6.536;2023-06-22T11:26:41;101416.19;;;23.83;100.00
64354;BME280;50681;53.334;-6.536;2023-06-22T11:29:07;101410.09;;;24.10;100.00
64354;BME280;50681;53.334;-6.536;2023-06-22T11:31:34;101403.34;;;24.07;100.00
64354;BME280;50681;53.334;-6.536;2023-06-22T11:34:00;101410.63;;;24.15;100.00
64354;BME280;50681;53.334;-6.536;2023-06-22T11:36:26;101411.84;;;24.37;100.00
64354;BME280;50681;53.334;-6.536;2023-06-22T11:38:52;101414.69;;;24.21;100.00
64354;BME280;50681;53.334;-6.536;2023-06-22T11:41:17;101413.84;;;24.60;100.00
64354;BME280;50681;53.334;-6.536;2023-06-22T11:43:44;101407.13;;;24.58;100.00
64354;BME280;50681;53.334;-6.536;2023-06-22T11:46:09;101409.50;;;24.79;100.00
64354;BME280;50681;53.334;-6.536;2023-06-22T11:48:35;101403.38;;;24.89;100.00
64354;BME280;50681;53.334;-6.536;2023-06-22T11:51:01;101406.56;;;24.91;97.39
64354;BME280;50681;53.334;-6.536;2023-06-22T11:53:27;101403.44;;;25.16;100.00
64354;BME280;50681;53.334;-6.536;2023-06-22T11:55:53;101407.38;;;25.38;100.00
64354;BME280;50681;53.334;-6.536;2023-06-22T11:58:58;101395.34;;;25.27;100.00
64354;BME280;50681;53.334;-6.536;2023-06-22T12:02:41;101390.53;;;25.47;98.97
64354;BME280;50681;53.334;-6.536;2023-06-22T12:05:07;101394.66;;;25.34;93.26
64354;BME280;50681;53.334;-6.536;2023-06-22T12:07:38;101390.66;;;25.31;88.87
64354;BME280;50681;53.334;-6.536;2023-06-22T12:10:04;101381.47;;;25.47;93.09
64354;BME280;50681;53.334;-6.536;2023-06-22T12:12:30;101389.88;;;25.54;89.62
64354;BME280;50681;53.334;-6.536;2023-06-22T12:14:56;101398.75;;;25.44;88.25
64354;BME280;50681;53.334;-6.536;2023-06-22T12:17:21;101382.69;;;25.26;91.63
64354;BME280;50681;53.334;-6.536;2023-06-22T12:19:46;101396.13;;;25.51;81.71
64354;BME280;50681;53.334;-6.536;2023-06-22T12:22:12;101392.72;;;25.61;80.67
64354;BME280;50681;53.334;-6.536;2023-06-22T12:24:40;101388.56;;;25.75;82.46
64354;BME280;50681;53.334;-6.536;2023-06-22T12:27:07;101387.59;;;25.90;86.28
64354;BME280;50681;53.334;-6.536;2023-06-22T12:29:34;101384.84;;;26.21;86.87
64354;BME280;50681;53.334;-6.536;2023-06-22T12:32:00;101385.44;;;26.07;87.08
64354;BME280;50681;53.334;-6.536;2023-06-22T12:34:26;101402.44;;;26.36;87.33
64354;BME280;50681;53.334;-6.536;2023-06-22T12:36:54;101394.81;;;26.29;83.37
64354;BME280;50681;53.334;-6.536;2023-06-22T12:39:20;101401.84;;;26.57;95.53
64354;BME280;50681;53.334;-6.536;2023-06-22T12:41:46;101399.44;;;26.52;100.00